School Creek, Nebraska
Current Conditions -  °F | °C
As of 5:35 PM on Wednesday 22 Oct 2014 (Local Time) from KAUH Reporting Station
Light Rain Light Rain  
Wind Chill: 62°   Ceiling: 4800
Heat Index: 62°   Visibility: 7mi
Dew Point: 61°   Wind: 8mph
Humidity: 97%   Direction: 200°SSW
Pressure: 30.01"   Gusts: 18mph
Location:  40.6539°N, 97.8811°W
Report Text: KAUH 222235Z AUTO 20007G16KT 7SM -RA SCT014 BKN048 OVC080 17/16 A3001 RMK AO2 P0014 T01650160
Loading
Personal Weather Stations






























Interactive Weather Map
Tropical Storm Tracking
New forecast layout! Learn more

10-Day Weather Forecast

Advertisements
Track Severe Weather on mobile